神戸空港の過去48時間の天気

神戸空港 (Kobe)

現在時刻: 1/23 12:27 JST (1/23 03:27 UTC) 以下の時間は現地時間です。

過去48時間のMETAR気象情報
時間 風向 風速(m/s) 視程 気温(℃) 湿度(%) 気圧(hPa) 天気現象
23 12:00 東北東 5 10km以上 10 87 1018
23 11:00 北東 7 10km以上 10 87 1018
23 10:00 東北東 9 10km以上 9 87 1018
23 09:00 北東 9 10km以上 9 87 1018 弱い雨
23 08:00 北東 8 10km以上 8 93 1019 弱い雨
23 07:00 東北東 9 7000m 8 87 1019 弱い雨
22 21:00 3 10km以上 8 81 1026 弱い雨
22 20:00 静穏 0 10km以上 9 76 1026 弱い雨
22 19:00 北北東 1 10km以上 8 81 1026 弱い雨
22 18:00 1 10km以上 9 66 1026 弱い雨
22 17:00 北北東 1 10km以上 9 62 1026 弱い雨
22 16:00 東南東 2 10km以上 9 57 1026
22 15:00 不定 1 10km以上 9 53 1026
22 14:00 不定 1 10km以上 9 53 1026
22 13:00 不定 1 10km以上 9 46 1027
22 12:00 北東 2 10km以上 8 49 1027
22 11:00 4 10km以上 8 53 1028
22 10:00 北東 5 10km以上 7 57 1028
22 09:00 北東 4 10km以上 6 61 1029
22 08:00 東北東 5 10km以上 4 75 1028
22 07:00 東北東 5 10km以上 4 75 1028
21 21:00 北東 5 10km以上 6 61 1029
21 20:00 北東 5 10km以上 6 61 1029
21 19:00 北北東 7 10km以上 7 57 1028
21 18:00 北北東 6 10km以上 7 57 1028
21 17:00 5 10km以上 8 53 1027
21 16:00 北北東 5 10km以上 9 53 1026
21 15:00 北北東 5 10km以上 10 46 1025 周辺でしゅう雨
21 14:00 7 10km以上 9 53 1025
21 13:00 北北西 7 10km以上 11 43 1025
RJBE 230300Z 06009KT 9999 FEW008 BKN012 10/08 Q1018
RJBE 230200Z 05013KT 9999 FEW008 BKN013 10/08 Q1018
RJBE 230100Z 06017KT 9999 FEW005 BKN015 09/07 Q1018
RJBE 230000Z 05017KT 9999 -RA FEW005 BKN015 09/07 Q1018
RJBE 222300Z 04016KT 9999 -RA FEW005 SCT010 BKN020 08/07 Q1019
RJBE 222200Z 06018KT 7000 -RA FEW008 SCT025 OVC040 08/06 Q1019
RJBE 221200Z 08005KT 9999 -RA FEW015 BKN025 BKN050 08/05 Q1026
RJBE 221100Z 00000KT 9999 -RA FEW015 SCT025 BKN060 09/05 Q1026
RJBE 221000Z 03002KT 9999 -RA FEW020 SCT030 BKN060 08/05 Q1026
RJBE 220900Z 35001KT 9999 -RA FEW025 SCT060 OVC080 09/03 Q1026
RJBE 220800Z 03002KT 9999 -RA FEW030 SCT060 OVC080 09/02 Q1026
RJBE 220700Z 11003KT 080V140 9999 FEW030 BKN090 09/01 Q1026
RJBE 220600Z VRB02KT 9999 FEW030 BKN090 09/00 Q1026
RJBE 220500Z VRB02KT 9999 FEW025 BKN100 09/M00 Q1026
RJBE 220400Z VRB01KT 9999 FEW025 BKN100 09/M02 Q1027
RJBE 220300Z 05004KT 020V090 9999 FEW025 BKN110 08/M02 Q1027
RJBE 220200Z 09007KT 9999 FEW025 SCT120 BKN170 08/M01 Q1028
RJBE 220100Z 04010KT 9999 FEW025 SCT150 BKN170 07/M01 Q1028
RJBE 220000Z 04007KT 9999 FEW025 SCT130 BKN170 06/M01 Q1029
RJBE 212300Z 06010KT 9999 FEW025 SCT130 BKN/// 04/00 Q1028
RJBE 212200Z 06009KT 9999 FEW025 BKN150 04/00 Q1028
RJBE 211200Z 04009KT 9999 FEW030 06/M01 Q1029
RJBE 211100Z 04010KT 9999 FEW030 06/M01 Q1029
RJBE 211000Z 02013KT 9999 FEW030 07/M01 Q1028
RJBE 210900Z 03011KT 9999 FEW030 07/M01 Q1028
RJBE 210800Z 01010KT 350V050 9999 FEW025 SCT040 08/M01 Q1027
RJBE 210700Z 02010KT 9999 FEW025 SCT050 09/M00 Q1026
RJBE 210600Z 02010KT 9999 VCSH FEW025 BKN050 10/M01 Q1025
RJBE 210500Z 01013KT 9999 FEW025 BKN050 09/M00 Q1025
RJBE 210400Z 34013KT 9999 FEW030 BKN045 11/M01 Q1025